sensor_id;sensor_type;location;lat;lon;timestamp;P1;durP1;ratioP1;P2;durP2;ratioP2
11962;SDS011;62678;52.130;5.584;2023-04-06T00:00:17;14.55;;;10.65;;
11962;SDS011;62678;52.130;5.584;2023-04-06T00:02:46;15.23;;;10.80;;
11962;SDS011;62678;52.130;5.584;2023-04-06T00:05:13;15.95;;;10.98;;
11962;SDS011;62678;52.130;5.584;2023-04-06T00:07:40;18.52;;;11.05;;
11962;SDS011;62678;52.130;5.584;2023-04-06T00:10:07;17.90;;;11.35;;
11962;SDS011;62678;52.130;5.584;2023-04-06T00:12:35;16.52;;;11.25;;
11962;SDS011;62678;52.130;5.584;2023-04-06T00:15:02;17.38;;;10.88;;
11962;SDS011;62678;52.130;5.584;2023-04-06T00:17:32;17.45;;;11.45;;
11962;SDS011;62678;52.130;5.584;2023-04-06T00:19:58;20.23;;;11.65;;
11962;SDS011;62678;52.130;5.584;2023-04-06T00:22:25;17.80;;;11.20;;
11962;SDS011;62678;52.130;5.584;2023-04-06T00:24:52;16.25;;;10.60;;
11962;SDS011;62678;52.130;5.584;2023-04-06T00:27:19;18.90;;;10.70;;
11962;SDS011;62678;52.130;5.584;2023-04-06T00:29:46;17.33;;;10.48;;
11962;SDS011;62678;52.130;5.584;2023-04-06T00:32:13;14.63;;;9.85;;
11962;SDS011;62678;52.130;5.584;2023-04-06T00:34:41;17.77;;;10.00;;
11962;SDS011;62678;52.130;5.584;2023-04-06T00:37:08;16.50;;;10.82;;
11962;SDS011;62678;52.130;5.584;2023-04-06T00:39:35;17.45;;;10.80;;
11962;SDS011;62678;52.130;5.584;2023-04-06T00:42:02;19.80;;;11.05;;
11962;SDS011;62678;52.130;5.584;2023-04-06T00:44:35;16.75;;;10.55;;
11962;SDS011;62678;52.130;5.584;2023-04-06T00:47:02;17.00;;;11.18;;
11962;SDS011;62678;52.130;5.584;2023-04-06T00:49:29;15.98;;;10.30;;
11962;SDS011;62678;52.130;5.584;2023-04-06T00:51:57;15.60;;;10.15;;
11962;SDS011;62678;52.130;5.584;2023-04-06T00:54:24;14.73;;;9.48;;
11962;SDS011;62678;52.130;5.584;2023-04-06T00:56:51;15.60;;;11.07;;
11962;SDS011;62678;52.130;5.584;2023-04-06T00:59:18;16.25;;;10.90;;
11962;SDS011;62678;52.130;5.584;2023-04-06T01:01:45;17.13;;;10.88;;
11962;SDS011;62678;52.130;5.584;2023-04-06T01:04:12;15.27;;;10.43;;
11962;SDS011;62678;52.130;5.584;2023-04-06T01:06:39;18.50;;;11.25;;
11962;SDS011;62678;52.130;5.584;2023-04-06T01:09:07;17.10;;;10.73;;
11962;SDS011;62678;52.130;5.584;2023-04-06T01:11:35;17.52;;;11.05;;
11962;SDS011;62678;52.130;5.584;2023-04-06T01:14:02;16.33;;;10.52;;
11962;SDS011;62678;52.130;5.584;2023-04-06T01:16:30;16.77;;;10.80;;
11962;SDS011;62678;52.130;5.584;2023-04-06T01:18:57;15.45;;;10.98;;
11962;SDS011;62678;52.130;5.584;2023-04-06T01:21:23;15.52;;;10.90;;
11962;SDS011;62678;52.130;5.584;2023-04-06T01:23:52;17.42;;;10.80;;
11962;SDS011;62678;52.130;5.584;2023-04-06T01:26:19;17.80;;;10.88;;
11962;SDS011;62678;52.130;5.584;2023-04-06T01:28:45;18.63;;;11.93;;
11962;SDS011;62678;52.130;5.584;2023-04-06T01:31:12;17.52;;;10.63;;
11962;SDS011;62678;52.130;5.584;2023-04-06T01:33:39;18.50;;;11.30;;
11962;SDS011;62678;52.130;5.584;2023-04-06T01:36:06;17.55;;;10.77;;
11962;SDS011;62678;52.130;5.584;2023-04-06T01:38:36;15.48;;;10.48;;
11962;SDS011;62678;52.130;5.584;2023-04-06T01:41:04;19.73;;;10.98;;
11962;SDS011;62678;52.130;5.584;2023-04-06T01:43:31;17.33;;;11.00;;
11962;SDS011;62678;52.130;5.584;2023-04-06T01:45:58;16.58;;;10.32;;
11962;SDS011;62678;52.130;5.584;2023-04-06T01:48:25;18.33;;;10.50;;
11962;SDS011;62678;52.130;5.584;2023-04-06T01:50:52;17.10;;;11.50;;
11962;SDS011;62678;52.130;5.584;2023-04-06T01:53:19;14.93;;;11.02;;
11962;SDS011;62678;52.130;5.584;2023-04-06T01:55:46;17.67;;;11.35;;
11962;SDS011;62678;52.130;5.584;2023-04-06T01:58:14;15.73;;;10.75;;
11962;SDS011;62678;52.130;5.584;2023-04-06T02:00:41;16.80;;;10.65;;
11962;SDS011;62678;52.130;5.584;2023-04-06T02:03:08;17.35;;;11.25;;
11962;SDS011;62678;52.130;5.584;2023-04-06T02:05:35;16.98;;;10.70;;
11962;SDS011;62678;52.130;5.584;2023-04-06T02:08:03;16.20;;;11.18;;
11962;SDS011;62678;52.130;5.584;2023-04-06T02:10:30;14.40;;;10.05;;
11962;SDS011;62678;52.130;5.584;2023-04-06T02:12:57;17.10;;;9.57;;
11962;SDS011;62678;52.130;5.584;2023-04-06T02:15:26;17.08;;;10.90;;
11962;SDS011;62678;52.130;5.584;2023-04-06T02:17:53;16.00;;;10.50;;
11962;SDS011;62678;52.130;5.584;2023-04-06T02:20:20;16.90;;;10.95;;
11962;SDS011;62678;52.130;5.584;2023-04-06T02:22:47;16.58;;;11.05;;
11962;SDS011;62678;52.130;5.584;2023-04-06T02:25:14;14.82;;;10.13;;
11962;SDS011;62678;52.130;5.584;2023-04-06T02:27:41;16.65;;;10.88;;
11962;SDS011;62678;52.130;5.584;2023-04-06T02:30:08;14.65;;;10.05;;
11962;SDS011;62678;52.130;5.584;2023-04-06T02:32:37;15.32;;;10.05;;
11962;SDS011;62678;52.130;5.584;2023-04-06T02:35:04;15.30;;;10.68;;
11962;SDS011;62678;52.130;5.584;2023-04-06T02:37:31;15.98;;;10.60;;
11962;SDS011;62678;52.130;5.584;2023-04-06T02:39:58;17.80;;;10.57;;
11962;SDS011;62678;52.130;5.584;2023-04-06T02:42:25;15.05;;;10.25;;
11962;SDS011;62678;52.130;5.584;2023-04-06T02:44:52;17.73;;;10.13;;
11962;SDS011;62678;52.130;5.584;2023-04-06T02:47:19;16.70;;;9.98;;
11962;SDS011;62678;52.130;5.584;2023-04-06T02:49:47;13.95;;;10.30;;
11962;SDS011;62678;52.130;5.584;2023-04-06T02:52:14;14.77;;;9.93;;
11962;SDS011;62678;52.130;5.584;2023-04-06T02:54:42;17.52;;;10.50;;
11962;SDS011;62678;52.130;5.584;2023-04-06T02:57:09;17.20;;;10.63;;
11962;SDS011;62678;52.130;5.584;2023-04-06T02:59:36;15.50;;;10.13;;
11962;SDS011;62678;52.130;5.584;2023-04-06T03:02:03;14.35;;;10.18;;
11962;SDS011;62678;52.130;5.584;2023-04-06T03:04:30;14.82;;;10.05;;
11962;SDS011;62678;52.130;5.584;2023-04-06T03:06:58;16.52;;;10.32;;
11962;SDS011;62678;52.130;5.584;2023-04-06T03:09:25;16.58;;;10.13;;
11962;SDS011;62678;52.130;5.584;2023-04-06T03:11:52;13.07;;;9.90;;
11962;SDS011;62678;52.130;5.584;2023-04-06T03:14:19;19.35;;;10.07;;
11962;SDS011;62678;52.130;5.584;2023-04-06T03:16:47;15.52;;;9.80;;
11962;SDS011;62678;52.130;5.584;2023-04-06T03:19:14;17.20;;;10.77;;
11962;SDS011;62678;52.130;5.584;2023-04-06T03:21:41;15.95;;;9.63;;
11962;SDS011;62678;52.130;5.584;2023-04-06T03:24:09;14.80;;;10.27;;
11962;SDS011;62678;52.130;5.584;2023-04-06T03:26:37;15.48;;;10.38;;
11962;SDS011;62678;52.130;5.584;2023-04-06T03:29:04;13.52;;;9.32;;
11962;SDS011;62678;52.130;5.584;2023-04-06T03:31:31;13.48;;;9.27;;
11962;SDS011;62678;52.130;5.584;2023-04-06T03:34:02;16.73;;;8.80;;
11962;SDS011;62678;52.130;5.584;2023-04-06T03:36:28;14.02;;;8.70;;
11962;SDS011;62678;52.130;5.584;2023-04-06T03:38:55;14.75;;;8.73;;
11962;SDS011;62678;52.130;5.584;2023-04-06T03:41:24;15.13;;;9.27;;
11962;SDS011;62678;52.130;5.584;2023-04-06T03:43:51;14.55;;;9.57;;
11962;SDS011;62678;52.130;5.584;2023-04-06T03:46:18;15.25;;;10.20;;
11962;SDS011;62678;52.130;5.584;2023-04-06T03:48:45;15.48;;;9.30;;
11962;SDS011;62678;52.130;5.584;2023-04-06T03:51:14;16.85;;;9.73;;
11962;SDS011;62678;52.130;5.584;2023-04-06T03:53:41;14.40;;;9.65;;
11962;SDS011;62678;52.130;5.584;2023-04-06T03:56:07;16.05;;;10.07;;
11962;SDS011;62678;52.130;5.584;2023-04-06T03:58:36;14.75;;;9.98;;
11962;SDS011;62678;52.130;5.584;2023-04-06T04:01:03;14.65;;;9.63;;
11962;SDS011;62678;52.130;5.584;2023-04-06T04:03:29;17.30;;;10.13;;
11962;SDS011;62678;52.130;5.584;2023-04-06T04:05:56;15.80;;;10.15;;
11962;SDS011;62678;52.130;5.584;2023-04-06T04:08:24;16.02;;;10.35;;
11962;SDS011;62678;52.130;5.584;2023-04-06T04:10:51;14.30;;;10.50;;
11962;SDS011;62678;52.130;5.584;2023-04-06T04:13:18;16.30;;;10.50;;
11962;SDS011;62678;52.130;5.584;2023-04-06T04:15:47;16.48;;;11.10;;
11962;SDS011;62678;52.130;5.584;2023-04-06T04:18:14;17.00;;;11.02;;
11962;SDS011;62678;52.130;5.584;2023-04-06T04:20:40;19.58;;;10.88;;
11962;SDS011;62678;52.130;5.584;2023-04-06T04:23:07;19.63;;;11.57;;
11962;SDS011;62678;52.130;5.584;2023-04-06T04:25:34;16.92;;;11.23;;
11962;SDS011;62678;52.130;5.584;2023-04-06T04:28:01;16.60;;;11.57;;
11962;SDS011;62678;52.130;5.584;2023-04-06T04:30:28;16.80;;;11.27;;
11962;SDS011;62678;52.130;5.584;2023-04-06T04:32:57;16.80;;;11.40;;
11962;SDS011;62678;52.130;5.584;2023-04-06T04:35:23;19.33;;;11.55;;
11962;SDS011;62678;52.130;5.584;2023-04-06T04:37:50;20.75;;;12.50;;
11962;SDS011;62678;52.130;5.584;2023-04-06T04:40:17;19.48;;;12.00;;
11962;SDS011;62678;52.130;5.584;2023-04-06T04:42:44;20.48;;;12.07;;
11962;SDS011;62678;52.130;5.584;2023-04-06T04:45:11;19.17;;;12.20;;
11962;SDS011;62678;52.130;5.584;2023-04-06T04:47:39;21.42;;;12.48;;
11962;SDS011;62678;52.130;5.584;2023-04-06T04:50:07;16.67;;;11.98;;
11962;SDS011;62678;52.130;5.584;2023-04-06T04:52:35;16.65;;;11.63;;
11962;SDS011;62678;52.130;5.584;2023-04-06T04:55:03;18.73;;;12.25;;
11962;SDS011;62678;52.130;5.584;2023-04-06T04:57:31;18.55;;;10.90;;
11962;SDS011;62678;52.130;5.584;2023-04-06T04:59:58;16.90;;;10.85;;
11962;SDS011;62678;52.130;5.584;2023-04-06T05:02:25;20.15;;;11.60;;
11962;SDS011;62678;52.130;5.584;2023-04-06T05:04:52;17.02;;;11.35;;
11962;SDS011;62678;52.130;5.584;2023-04-06T05:07:20;16.67;;;10.60;;
11962;SDS011;62678;52.130;5.584;2023-04-06T05:09:47;18.95;;;11.77;;
11962;SDS011;62678;52.130;5.584;2023-04-06T05:12:13;19.92;;;11.77;;
11962;SDS011;62678;52.130;5.584;2023-04-06T05:14:40;19.10;;;11.15;;
11962;SDS011;62678;52.130;5.584;2023-04-06T05:17:10;19.20;;;11.85;;
11962;SDS011;62678;52.130;5.584;2023-04-06T05:19:37;20.73;;;12.70;;
11962;SDS011;62678;52.130;5.584;2023-04-06T05:22:05;18.98;;;11.70;;
11962;SDS011;62678;52.130;5.584;2023-04-06T05:24:33;18.73;;;12.05;;
11962;SDS011;62678;52.130;5.584;2023-04-06T05:27:01;16.80;;;11.93;;
11962;SDS011;62678;52.130;5.584;2023-04-06T05:29:28;18.77;;;11.35;;
11962;SDS011;62678;52.130;5.584;2023-04-06T05:31:55;23.38;;;11.85;;
11962;SDS011;62678;52.130;5.584;2023-04-06T05:34:22;22.85;;;11.93;;
11962;SDS011;62678;52.130;5.584;2023-04-06T05:36:50;18.55;;;11.88;;
11962;SDS011;62678;52.130;5.584;2023-04-06T05:39:17;18.80;;;11.18;;
11962;SDS011;62678;52.130;5.584;2023-04-06T05:41:45;17.70;;;11.65;;
11962;SDS011;62678;52.130;5.584;2023-04-06T05:44:12;21.65;;;11.77;;
11962;SDS011;62678;52.130;5.584;2023-04-06T05:46:40;19.55;;;12.02;;
11962;SDS011;62678;52.130;5.584;2023-04-06T05:49:07;18.83;;;12.05;;
11962;SDS011;62678;52.130;5.584;2023-04-06T05:51:33;23.08;;;11.40;;
11962;SDS011;62678;52.130;5.584;2023-04-06T05:54:00;20.27;;;12.60;;
11962;SDS011;62678;52.130;5.584;2023-04-06T05:56:27;21.33;;;12.13;;
11962;SDS011;62678;52.130;5.584;2023-04-06T05:58:56;18.90;;;12.40;;
11962;SDS011;62678;52.130;5.584;2023-04-06T06:01:23;20.98;;;12.73;;
11962;SDS011;62678;52.130;5.584;2023-04-06T06:03:51;22.63;;;11.98;;
11962;SDS011;62678;52.130;5.584;2023-04-06T06:06:18;20.75;;;12.52;;
11962;SDS011;62678;52.130;5.584;2023-04-06T06:08:45;19.90;;;12.32;;
11962;SDS011;62678;52.130;5.584;2023-04-06T06:11:12;18.20;;;11.68;;
11962;SDS011;62678;52.130;5.584;2023-04-06T06:13:39;19.25;;;12.13;;
11962;SDS011;62678;52.130;5.584;2023-04-06T06:16:07;20.05;;;13.18;;
11962;SDS011;62678;52.130;5.584;2023-04-06T06:18:35;22.10;;;13.18;;
11962;SDS011;62678;52.130;5.584;2023-04-06T06:21:03;22.48;;;13.45;;
11962;SDS011;62678;52.130;5.584;2023-04-06T06:23:30;23.92;;;14.13;;
11962;SDS011;62678;52.130;5.584;2023-04-06T06:25:58;22.40;;;14.23;;
11962;SDS011;62678;52.130;5.584;2023-04-06T06:28:26;21.13;;;12.80;;
11962;SDS011;62678;52.130;5.584;2023-04-06T06:30:53;23.20;;;13.85;;
11962;SDS011;62678;52.130;5.584;2023-04-06T06:33:21;26.73;;;14.05;;
11962;SDS011;62678;52.130;5.584;2023-04-06T06:35:49;23.88;;;14.82;;
11962;SDS011;62678;52.130;5.584;2023-04-06T06:38:17;21.52;;;14.20;;
11962;SDS011;62678;52.130;5.584;2023-04-06T06:40:44;22.13;;;14.82;;
11962;SDS011;62678;52.130;5.584;2023-04-06T06:43:12;23.85;;;14.82;;
11962;SDS011;62678;52.130;5.584;2023-04-06T06:45:39;25.92;;;17.00;;
11962;SDS011;62678;52.130;5.584;2023-04-06T06:48:07;28.15;;;16.65;;
11962;SDS011;62678;52.130;5.584;2023-04-06T06:50:35;28.83;;;19.02;;
11962;SDS011;62678;52.130;5.584;2023-04-06T06:53:03;30.33;;;19.30;;
11962;SDS011;62678;52.130;5.584;2023-04-06T06:55:30;29.70;;;17.27;;
11962;SDS011;62678;52.130;5.584;2023-04-06T06:57:56;23.55;;;14.98;;
11962;SDS011;62678;52.130;5.584;2023-04-06T07:00:23;24.38;;;15.50;;
11962;SDS011;62678;52.130;5.584;2023-04-06T07:02:51;30.30;;;16.10;;
11962;SDS011;62678;52.130;5.584;2023-04-06T07:05:18;29.20;;;15.80;;
11962;SDS011;62678;52.130;5.584;2023-04-06T07:07:47;26.05;;;15.75;;
11962;SDS011;62678;52.130;5.584;2023-04-06T07:10:14;29.88;;;16.88;;
11962;SDS011;62678;52.130;5.584;2023-04-06T07:12:41;24.10;;;15.95;;
11962;SDS011;62678;52.130;5.584;2023-04-06T07:15:08;26.73;;;15.80;;
11962;SDS011;62678;52.130;5.584;2023-04-06T07:17:36;23.80;;;15.30;;
11962;SDS011;62678;52.130;5.584;2023-04-06T07:20:03;26.35;;;16.10;;
11962;SDS011;62678;52.130;5.584;2023-04-06T07:22:31;24.33;;;15.38;;
11962;SDS011;62678;52.130;5.584;2023-04-06T07:24:59;29.85;;;15.98;;
11962;SDS011;62678;52.130;5.584;2023-04-06T07:27:26;24.20;;;14.73;;
11962;SDS011;62678;52.130;5.584;2023-04-06T07:29:53;33.50;;;15.60;;
11962;SDS011;62678;52.130;5.584;2023-04-06T07:32:20;24.98;;;15.10;;
11962;SDS011;62678;52.130;5.584;2023-04-06T07:34:47;29.58;;;16.08;;
11962;SDS011;62678;52.130;5.584;2023-04-06T07:37:14;28.00;;;15.30;;
11962;SDS011;62678;52.130;5.584;2023-04-06T07:39:42;23.48;;;15.55;;
11962;SDS011;62678;52.130;5.584;2023-04-06T07:42:10;23.48;;;15.85;;
11962;SDS011;62678;52.130;5.584;2023-04-06T07:44:37;23.63;;;14.55;;
11962;SDS011;62678;52.130;5.584;2023-04-06T07:47:04;25.88;;;14.70;;
11962;SDS011;62678;52.130;5.584;2023-04-06T07:49:31;28.67;;;16.38;;
11962;SDS011;62678;52.130;5.584;2023-04-06T07:51:58;23.60;;;15.73;;
11962;SDS011;62678;52.130;5.584;2023-04-06T07:54:25;25.30;;;15.93;;
11962;SDS011;62678;52.130;5.584;2023-04-06T07:56:52;27.00;;;16.13;;
11962;SDS011;62678;52.130;5.584;2023-04-06T07:59:21;24.48;;;15.52;;
11962;SDS011;62678;52.130;5.584;2023-04-06T08:01:48;23.23;;;15.63;;
11962;SDS011;62678;52.130;5.584;2023-04-06T08:04:15;27.67;;;17.17;;
11962;SDS011;62678;52.130;5.584;2023-04-06T08:06:42;25.25;;;16.60;;
11962;SDS011;62678;52.130;5.584;2023-04-06T08:09:10;25.35;;;17.15;;
11962;SDS011;62678;52.130;5.584;2023-04-06T08:11:37;26.65;;;16.48;;
11962;SDS011;62678;52.130;5.584;2023-04-06T08:14:04;30.30;;;16.58;;
11962;SDS011;62678;52.130;5.584;2023-04-06T08:16:32;25.08;;;15.98;;
11962;SDS011;62678;52.130;5.584;2023-04-06T08:18:59;25.33;;;17.30;;
11962;SDS011;62678;52.130;5.584;2023-04-06T08:21:26;29.73;;;16.65;;
11962;SDS011;62678;52.130;5.584;2023-04-06T08:23:53;30.77;;;16.52;;
11962;SDS011;62678;52.130;5.584;2023-04-06T08:26:20;25.90;;;16.33;;
11962;SDS011;62678;52.130;5.584;2023-04-06T08:28:47;25.75;;;17.35;;
11962;SDS011;62678;52.130;5.584;2023-04-06T08:31:14;26.88;;;17.58;;
11962;SDS011;62678;52.130;5.584;2023-04-06T08:33:42;24.58;;;16.58;;
11962;SDS011;62678;52.130;5.584;2023-04-06T08:36:10;27.27;;;17.02;;
11962;SDS011;62678;52.130;5.584;2023-04-06T08:38:38;27.23;;;17.58;;
11962;SDS011;62678;52.130;5.584;2023-04-06T08:41:07;25.77;;;16.88;;
11962;SDS011;62678;52.130;5.584;2023-04-06T08:43:36;28.10;;;17.90;;
11962;SDS011;62678;52.130;5.584;2023-04-06T08:46:10;27.00;;;17.77;;
11962;SDS011;62678;52.130;5.584;2023-04-06T08:48:38;26.52;;;17.08;;
11962;SDS011;62678;52.130;5.584;2023-04-06T08:51:07;31.13;;;17.85;;
11962;SDS011;62678;52.130;5.584;2023-04-06T08:53:35;25.67;;;17.17;;
11962;SDS011;62678;52.130;5.584;2023-04-06T08:56:02;31.10;;;17.85;;
11962;SDS011;62678;52.130;5.584;2023-04-06T08:58:32;28.15;;;18.00;;
11962;SDS011;62678;52.130;5.584;2023-04-06T09:01:02;31.08;;;18.60;;
11962;SDS011;62678;52.130;5.584;2023-04-06T09:03:35;27.48;;;18.10;;
11962;SDS011;62678;52.130;5.584;2023-04-06T09:06:07;26.70;;;17.63;;
11962;SDS011;62678;52.130;5.584;2023-04-06T09:08:37;27.65;;;18.67;;
11962;SDS011;62678;52.130;5.584;2023-04-06T09:11:06;27.80;;;18.35;;
11962;SDS011;62678;52.130;5.584;2023-04-06T09:13:43;26.17;;;18.00;;
11962;SDS011;62678;52.130;5.584;2023-04-06T09:16:11;27.65;;;17.77;;
11962;SDS011;62678;52.130;5.584;2023-04-06T09:18:39;29.88;;;17.23;;
11962;SDS011;62678;52.130;5.584;2023-04-06T09:21:06;31.95;;;18.65;;
11962;SDS011;62678;52.130;5.584;2023-04-06T09:23:35;31.10;;;19.67;;
11962;SDS011;62678;52.130;5.584;2023-04-06T09:26:04;30.83;;;19.27;;
11962;SDS011;62678;52.130;5.584;2023-04-06T09:28:46;31.75;;;19.50;;
11962;SDS011;62678;52.130;5.584;2023-04-06T09:31:14;30.13;;;19.35;;
11962;SDS011;62678;52.130;5.584;2023-04-06T09:33:43;28.73;;;19.60;;
11962;SDS011;62678;52.130;5.584;2023-04-06T09:36:13;32.25;;;19.50;;
11962;SDS011;62678;52.130;5.584;2023-04-06T09:38:51;30.67;;;19.58;;
11962;SDS011;62678;52.130;5.584;2023-04-06T09:41:23;32.30;;;20.45;;
11962;SDS011;62678;52.130;5.584;2023-04-06T09:43:50;31.55;;;20.13;;
11962;SDS011;62678;52.130;5.584;2023-04-06T09:46:18;30.80;;;20.00;;
11962;SDS011;62678;52.130;5.584;2023-04-06T09:48:49;30.63;;;20.40;;
11962;SDS011;62678;52.130;5.584;2023-04-06T09:51:18;30.33;;;20.65;;
11962;SDS011;62678;52.130;5.584;2023-04-06T09:53:47;31.15;;;19.73;;
11962;SDS011;62678;52.130;5.584;2023-04-06T09:56:20;30.10;;;21.00;;
11962;SDS011;62678;52.130;5.584;2023-04-06T09:58:51;31.33;;;19.42;;
11962;SDS011;62678;52.130;5.584;2023-04-06T10:01:22;28.77;;;20.63;;
11962;SDS011;62678;52.130;5.584;2023-04-06T10:03:55;30.60;;;20.05;;
11962;SDS011;62678;52.130;5.584;2023-04-06T10:06:31;32.13;;;20.25;;
11962;SDS011;62678;52.130;5.584;2023-04-06T10:09:00;30.80;;;20.73;;
11962;SDS011;62678;52.130;5.584;2023-04-06T10:11:30;33.15;;;20.88;;
11962;SDS011;62678;52.130;5.584;2023-04-06T10:13:58;30.77;;;20.08;;
11962;SDS011;62678;52.130;5.584;2023-04-06T10:16:25;33.72;;;20.80;;
11962;SDS011;62678;52.130;5.584;2023-04-06T10:18:54;33.80;;;20.90;;
11962;SDS011;62678;52.130;5.584;2023-04-06T10:21:25;28.45;;;20.88;;
11962;SDS011;62678;52.130;5.584;2023-04-06T10:23:55;35.63;;;21.50;;
11962;SDS011;62678;52.130;5.584;2023-04-06T10:26:25;32.25;;;20.27;;
11962;SDS011;62678;52.130;5.584;2023-04-06T10:28:52;33.85;;;21.77;;
11962;SDS011;62678;52.130;5.584;2023-04-06T10:31:26;32.75;;;21.25;;
11962;SDS011;62678;52.130;5.584;2023-04-06T10:33:54;31.27;;;18.10;;
11962;SDS011;62678;52.130;5.584;2023-04-06T10:36:22;33.50;;;20.38;;
11962;SDS011;62678;52.130;5.584;2023-04-06T10:38:56;27.88;;;18.95;;
11962;SDS011;62678;52.130;5.584;2023-04-06T10:41:24;30.00;;;18.23;;
11962;SDS011;62678;52.130;5.584;2023-04-06T10:43:58;30.33;;;17.40;;
11962;SDS011;62678;52.130;5.584;2023-04-06T10:46:26;23.92;;;16.88;;
11962;SDS011;62678;52.130;5.584;2023-04-06T10:48:54;25.70;;;17.30;;
11962;SDS011;62678;52.130;5.584;2023-04-06T10:51:24;25.45;;;16.25;;
11962;SDS011;62678;52.130;5.584;2023-04-06T10:53:54;29.15;;;15.38;;
11962;SDS011;62678;52.130;5.584;2023-04-06T10:56:23;27.15;;;16.45;;
11962;SDS011;62678;52.130;5.584;2023-04-06T10:58:53;19.60;;;13.88;;
11962;SDS011;62678;52.130;5.584;2023-04-06T11:01:22;18.58;;;13.45;;
11962;SDS011;62678;52.130;5.584;2023-04-06T11:03:52;19.55;;;12.43;;
11962;SDS011;62678;52.130;5.584;2023-04-06T11:06:21;19.08;;;12.15;;
11962;SDS011;62678;52.130;5.584;2023-04-06T11:08:50;17.13;;;10.80;;
11962;SDS011;62678;52.130;5.584;2023-04-06T11:11:20;17.23;;;10.80;;
11962;SDS011;62678;52.130;5.584;2023-04-06T11:13:49;15.88;;;11.50;;
11962;SDS011;62678;52.130;5.584;2023-04-06T11:16:17;18.85;;;11.18;;
11962;SDS011;62678;52.130;5.584;2023-04-06T11:18:49;16.60;;;11.70;;
11962;SDS011;62678;52.130;5.584;2023-04-06T11:21:17;16.90;;;10.43;;
11962;SDS011;62678;52.130;5.584;2023-04-06T11:23:44;14.32;;;10.15;;
11962;SDS011;62678;52.130;5.584;2023-04-06T11:26:11;13.10;;;10.38;;
11962;SDS011;62678;52.130;5.584;2023-04-06T11:28:41;15.27;;;10.80;;
11962;SDS011;62678;52.130;5.584;2023-04-06T11:31:08;14.50;;;10.38;;
11962;SDS011;62678;52.130;5.584;2023-04-06T11:33:36;18.50;;;11.07;;
11962;SDS011;62678;52.130;5.584;2023-04-06T11:36:04;13.13;;;8.60;;
11962;SDS011;62678;52.130;5.584;2023-04-06T11:38:32;11.25;;;8.40;;
11962;SDS011;62678;52.130;5.584;2023-04-06T11:41:00;14.88;;;8.90;;
11962;SDS011;62678;52.130;5.584;2023-04-06T11:43:29;12.68;;;8.40;;
11962;SDS011;62678;52.130;5.584;2023-04-06T11:46:01;14.30;;;9.27;;
11962;SDS011;62678;52.130;5.584;2023-04-06T11:48:29;14.70;;;8.77;;
11962;SDS011;62678;52.130;5.584;2023-04-06T11:50:57;14.13;;;8.88;;
11962;SDS011;62678;52.130;5.584;2023-04-06T11:53:25;13.07;;;8.98;;
11962;SDS011;62678;52.130;5.584;2023-04-06T11:55:53;12.68;;;7.90;;
11962;SDS011;62678;52.130;5.584;2023-04-06T11:58:20;12.88;;;8.77;;
11962;SDS011;62678;52.130;5.584;2023-04-06T12:00:47;18.27;;;9.50;;
11962;SDS011;62678;52.130;5.584;2023-04-06T12:03:16;14.38;;;9.45;;
11962;SDS011;62678;52.130;5.584;2023-04-06T12:05:43;14.05;;;9.60;;
11962;SDS011;62678;52.130;5.584;2023-04-06T12:08:11;14.20;;;8.85;;
11962;SDS011;62678;52.130;5.584;2023-04-06T12:10:38;14.68;;;9.80;;
11962;SDS011;62678;52.130;5.584;2023-04-06T12:13:05;12.98;;;8.40;;
11962;SDS011;62678;52.130;5.584;2023-04-06T12:15:32;11.52;;;7.82;;
11962;SDS011;62678;52.130;5.584;2023-04-06T12:17:59;11.93;;;8.32;;
11962;SDS011;62678;52.130;5.584;2023-04-06T12:20:28;13.10;;;8.07;;
11962;SDS011;62678;52.130;5.584;2023-04-06T12:22:55;11.82;;;7.65;;
11962;SDS011;62678;52.130;5.584;2023-04-06T12:25:22;11.88;;;7.78;;
11962;SDS011;62678;52.130;5.584;2023-04-06T12:27:49;12.77;;;7.95;;
11962;SDS011;62678;52.130;5.584;2023-04-06T12:30:16;11.00;;;7.90;;
11962;SDS011;62678;52.130;5.584;2023-04-06T12:32:43;11.77;;;7.97;;
11962;SDS011;62678;52.130;5.584;2023-04-06T12:35:10;9.35;;;7.20;;
11962;SDS011;62678;52.130;5.584;2023-04-06T12:37:42;11.35;;;7.45;;
11962;SDS011;62678;52.130;5.584;2023-04-06T12:40:09;11.73;;;8.07;;
11962;SDS011;62678;52.130;5.584;2023-04-06T12:42:38;11.10;;;7.53;;
11962;SDS011;62678;52.130;5.584;2023-04-06T12:45:06;12.05;;;7.90;;
11962;SDS011;62678;52.130;5.584;2023-04-06T12:47:34;10.60;;;7.38;;
11962;SDS011;62678;52.130;5.584;2023-04-06T12:50:02;11.02;;;7.50;;
11962;SDS011;62678;52.130;5.584;2023-04-06T12:52:30;12.55;;;7.43;;
11962;SDS011;62678;52.130;5.584;2023-04-06T12:55:01;10.35;;;7.65;;
11962;SDS011;62678;52.130;5.584;2023-04-06T12:57:30;14.90;;;8.27;;
11962;SDS011;62678;52.130;5.584;2023-04-06T12:59:57;10.88;;;7.88;;
11962;SDS011;62678;52.130;5.584;2023-04-06T13:02:24;12.52;;;8.20;;
11962;SDS011;62678;52.130;5.584;2023-04-06T13:04:51;11.63;;;8.38;;
11962;SDS011;62678;52.130;5.584;2023-04-06T13:07:18;11.05;;;8.15;;
11962;SDS011;62678;52.130;5.584;2023-04-06T13:09:45;10.25;;;8.05;;
11962;SDS011;62678;52.130;5.584;2023-04-06T13:12:16;11.68;;;8.07;;
11962;SDS011;62678;52.130;5.584;2023-04-06T13:14:43;13.60;;;8.63;;
11962;SDS011;62678;52.130;5.584;2023-04-06T13:17:12;12.65;;;8.18;;
11962;SDS011;62678;52.130;5.584;2023-04-06T13:19:39;11.45;;;7.15;;
11962;SDS011;62678;52.130;5.584;2023-04-06T13:22:06;11.68;;;8.40;;
11962;SDS011;62678;52.130;5.584;2023-04-06T13:24:33;13.43;;;8.93;;
11962;SDS011;62678;52.130;5.584;2023-04-06T13:27:00;15.10;;;8.90;;
11962;SDS011;62678;52.130;5.584;2023-04-06T13:29:32;12.48;;;8.25;;
11962;SDS011;62678;52.130;5.584;2023-04-06T13:32:00;12.07;;;8.60;;
11962;SDS011;62678;52.130;5.584;2023-04-06T13:34:27;12.80;;;9.32;;
11962;SDS011;62678;52.130;5.584;2023-04-06T13:36:54;11.75;;;8.65;;
11962;SDS011;62678;52.130;5.584;2023-04-06T13:39:21;11.25;;;8.88;;
11962;SDS011;62678;52.130;5.584;2023-04-06T13:41:49;15.15;;;8.48;;
11962;SDS011;62678;52.130;5.584;2023-04-06T13:44:16;11.43;;;8.75;;
11962;SDS011;62678;52.130;5.584;2023-04-06T13:46:44;13.07;;;8.60;;
11962;SDS011;62678;52.130;5.584;2023-04-06T13:49:12;11.65;;;8.85;;
11962;SDS011;62678;52.130;5.584;2023-04-06T13:51:40;13.20;;;9.27;;
11962;SDS011;62678;52.130;5.584;2023-04-06T13:54:07;12.73;;;8.93;;
11962;SDS011;62678;52.130;5.584;2023-04-06T13:56:34;16.00;;;9.82;;
11962;SDS011;62678;52.130;5.584;2023-04-06T14:01:29;12.95;;;8.98;;
11962;SDS011;62678;52.130;5.584;2023-04-06T14:03:57;14.63;;;10.27;;
11962;SDS011;62678;52.130;5.584;2023-04-06T14:06:24;13.32;;;9.93;;
11962;SDS011;62678;52.130;5.584;2023-04-06T14:08:51;14.65;;;10.20;;
11962;SDS011;62678;52.130;5.584;2023-04-06T14:11:18;19.48;;;10.82;;
11962;SDS011;62678;52.130;5.584;2023-04-06T14:13:45;16.23;;;10.13;;
11962;SDS011;62678;52.130;5.584;2023-04-06T14:16:12;13.98;;;10.43;;
11962;SDS011;62678;52.130;5.584;2023-04-06T14:18:40;14.10;;;10.27;;
11962;SDS011;62678;52.130;5.584;2023-04-06T14:21:09;14.82;;;10.38;;
11962;SDS011;62678;52.130;5.584;2023-04-06T14:23:36;16.50;;;10.88;;
11962;SDS011;62678;52.130;5.584;2023-04-06T14:26:04;14.55;;;10.32;;
11962;SDS011;62678;52.130;5.584;2023-04-06T14:28:32;14.13;;;10.40;;